sensor_id;sensor_type;location;lat;lon;timestamp;P1;durP1;ratioP1;P2;durP2;ratioP2
61017;SDS011;48171;51.550;5.434;2022-12-07T00:01:24;21.40;;;11.60;;
61017;SDS011;48171;51.550;5.434;2022-12-07T00:03:53;23.15;;;12.15;;
61017;SDS011;48171;51.550;5.434;2022-12-07T00:06:22;22.42;;;12.63;;
61017;SDS011;48171;51.550;5.434;2022-12-07T00:08:48;20.63;;;11.63;;
61017;SDS011;48171;51.550;5.434;2022-12-07T00:11:15;24.90;;;12.25;;
61017;SDS011;48171;51.550;5.434;2022-12-07T00:13:42;22.67;;;11.95;;
61017;SDS011;48171;51.550;5.434;2022-12-07T00:16:09;22.13;;;11.63;;
61017;SDS011;48171;51.550;5.434;2022-12-07T00:18:39;26.55;;;11.80;;
61017;SDS011;48171;51.550;5.434;2022-12-07T00:21:08;22.45;;;12.00;;
61017;SDS011;48171;51.550;5.434;2022-12-07T00:23:35;20.23;;;11.73;;
61017;SDS011;48171;51.550;5.434;2022-12-07T00:26:08;20.67;;;11.55;;
61017;SDS011;48171;51.550;5.434;2022-12-07T00:28:35;20.60;;;11.85;;
61017;SDS011;48171;51.550;5.434;2022-12-07T00:31:05;19.73;;;11.52;;
61017;SDS011;48171;51.550;5.434;2022-12-07T00:33:36;23.08;;;11.82;;
61017;SDS011;48171;51.550;5.434;2022-12-07T00:36:03;22.73;;;11.80;;
61017;SDS011;48171;51.550;5.434;2022-12-07T00:38:32;23.08;;;12.00;;
61017;SDS011;48171;51.550;5.434;2022-12-07T00:41:21;23.17;;;11.57;;
61017;SDS011;48171;51.550;5.434;2022-12-07T00:43:47;22.73;;;11.48;;
61017;SDS011;48171;51.550;5.434;2022-12-07T00:46:13;20.02;;;11.25;;
61017;SDS011;48171;51.550;5.434;2022-12-07T00:48:39;25.80;;;11.45;;
61017;SDS011;48171;51.550;5.434;2022-12-07T00:51:05;21.67;;;11.75;;
61017;SDS011;48171;51.550;5.434;2022-12-07T00:53:33;21.20;;;11.93;;
61017;SDS011;48171;51.550;5.434;2022-12-07T00:56:04;22.65;;;10.52;;
61017;SDS011;48171;51.550;5.434;2022-12-07T00:58:34;21.35;;;10.95;;
61017;SDS011;48171;51.550;5.434;2022-12-07T01:01:00;19.23;;;10.82;;
61017;SDS011;48171;51.550;5.434;2022-12-07T01:03:27;19.10;;;10.18;;
61017;SDS011;48171;51.550;5.434;2022-12-07T01:05:53;19.35;;;11.05;;
61017;SDS011;48171;51.550;5.434;2022-12-07T01:08:20;21.13;;;10.88;;
61017;SDS011;48171;51.550;5.434;2022-12-07T01:10:45;22.23;;;11.18;;
61017;SDS011;48171;51.550;5.434;2022-12-07T01:13:11;22.08;;;11.25;;
61017;SDS011;48171;51.550;5.434;2022-12-07T01:15:40;18.95;;;10.18;;
61017;SDS011;48171;51.550;5.434;2022-12-07T01:18:09;19.58;;;10.55;;
61017;SDS011;48171;51.550;5.434;2022-12-07T01:20:34;19.15;;;10.88;;
61017;SDS011;48171;51.550;5.434;2022-12-07T01:23:01;20.60;;;10.55;;
61017;SDS011;48171;51.550;5.434;2022-12-07T01:25:26;17.58;;;9.13;;
61017;SDS011;48171;51.550;5.434;2022-12-07T01:27:52;17.35;;;9.70;;
61017;SDS011;48171;51.550;5.434;2022-12-07T01:30:17;22.38;;;11.13;;
61017;SDS011;48171;51.550;5.434;2022-12-07T01:32:42;19.23;;;10.85;;
61017;SDS011;48171;51.550;5.434;2022-12-07T01:35:08;20.00;;;10.65;;
61017;SDS011;48171;51.550;5.434;2022-12-07T01:37:34;25.98;;;10.68;;
61017;SDS011;48171;51.550;5.434;2022-12-07T01:40:01;18.10;;;10.68;;
61017;SDS011;48171;51.550;5.434;2022-12-07T01:42:26;23.23;;;11.05;;
61017;SDS011;48171;51.550;5.434;2022-12-07T01:47:43;19.70;;;10.35;;
61017;SDS011;48171;51.550;5.434;2022-12-07T01:50:13;21.48;;;10.30;;
61017;SDS011;48171;51.550;5.434;2022-12-07T01:52:39;21.75;;;9.75;;
61017;SDS011;48171;51.550;5.434;2022-12-07T01:55:07;23.92;;;10.68;;
61017;SDS011;48171;51.550;5.434;2022-12-07T01:57:37;23.10;;;10.68;;
61017;SDS011;48171;51.550;5.434;2022-12-07T02:00:06;16.13;;;9.70;;
61017;SDS011;48171;51.550;5.434;2022-12-07T02:02:33;19.70;;;10.88;;
61017;SDS011;48171;51.550;5.434;2022-12-07T02:05:03;20.90;;;10.57;;
61017;SDS011;48171;51.550;5.434;2022-12-07T02:07:29;18.80;;;10.23;;
61017;SDS011;48171;51.550;5.434;2022-12-07T02:09:57;20.63;;;10.05;;
61017;SDS011;48171;51.550;5.434;2022-12-07T02:12:22;18.08;;;9.95;;
61017;SDS011;48171;51.550;5.434;2022-12-07T02:14:49;21.85;;;10.98;;
61017;SDS011;48171;51.550;5.434;2022-12-07T02:17:22;19.52;;;10.50;;
61017;SDS011;48171;51.550;5.434;2022-12-07T02:20:00;20.35;;;9.95;;
61017;SDS011;48171;51.550;5.434;2022-12-07T02:22:51;22.30;;;10.63;;
61017;SDS011;48171;51.550;5.434;2022-12-07T02:30:51;19.88;;;10.15;;
61017;SDS011;48171;51.550;5.434;2022-12-07T02:33:22;21.60;;;10.80;;
61017;SDS011;48171;51.550;5.434;2022-12-07T02:35:55;18.35;;;10.77;;
61017;SDS011;48171;51.550;5.434;2022-12-07T02:41:13;22.75;;;10.75;;
61017;SDS011;48171;51.550;5.434;2022-12-07T02:43:46;16.52;;;9.40;;
61017;SDS011;48171;51.550;5.434;2022-12-07T02:46:17;19.35;;;10.23;;
61017;SDS011;48171;51.550;5.434;2022-12-07T02:48:44;19.85;;;9.95;;
61017;SDS011;48171;51.550;5.434;2022-12-07T02:51:11;18.85;;;10.07;;
61017;SDS011;48171;51.550;5.434;2022-12-07T02:53:38;18.58;;;9.88;;
61017;SDS011;48171;51.550;5.434;2022-12-07T03:02:08;21.58;;;10.85;;
61017;SDS011;48171;51.550;5.434;2022-12-07T03:04:45;18.23;;;9.57;;
61017;SDS011;48171;51.550;5.434;2022-12-07T03:07:21;17.58;;;9.40;;
61017;SDS011;48171;51.550;5.434;2022-12-07T03:12:44;18.48;;;10.15;;
61017;SDS011;48171;51.550;5.434;2022-12-07T03:15:22;18.52;;;9.55;;
61017;SDS011;48171;51.550;5.434;2022-12-07T03:17:54;16.77;;;9.48;;
61017;SDS011;48171;51.550;5.434;2022-12-07T03:20:22;20.50;;;9.13;;
61017;SDS011;48171;51.550;5.434;2022-12-07T03:22:49;18.48;;;8.80;;
61017;SDS011;48171;51.550;5.434;2022-12-07T03:25:18;17.60;;;8.93;;
61017;SDS011;48171;51.550;5.434;2022-12-07T03:27:49;15.00;;;8.40;;
61017;SDS011;48171;51.550;5.434;2022-12-07T03:30:22;17.90;;;9.02;;
61017;SDS011;48171;51.550;5.434;2022-12-07T03:33:00;17.80;;;9.20;;
61017;SDS011;48171;51.550;5.434;2022-12-07T03:35:40;17.60;;;8.50;;
61017;SDS011;48171;51.550;5.434;2022-12-07T03:38:21;19.52;;;8.25;;
61017;SDS011;48171;51.550;5.434;2022-12-07T03:40:59;17.77;;;9.38;;
61017;SDS011;48171;51.550;5.434;2022-12-07T03:43:28;18.02;;;9.20;;
61017;SDS011;48171;51.550;5.434;2022-12-07T03:48:28;18.65;;;8.15;;
61017;SDS011;48171;51.550;5.434;2022-12-07T03:51:14;16.65;;;8.65;;
61017;SDS011;48171;51.550;5.434;2022-12-07T03:53:51;21.23;;;8.60;;
61017;SDS011;48171;51.550;5.434;2022-12-07T03:56:23;15.77;;;8.48;;
61017;SDS011;48171;51.550;5.434;2022-12-07T03:58:51;17.50;;;8.93;;
61017;SDS011;48171;51.550;5.434;2022-12-07T04:01:18;14.90;;;8.23;;
61017;SDS011;48171;51.550;5.434;2022-12-07T04:03:43;17.17;;;8.80;;
61017;SDS011;48171;51.550;5.434;2022-12-07T04:06:09;16.85;;;8.02;;
61017;SDS011;48171;51.550;5.434;2022-12-07T04:08:34;18.10;;;8.90;;
61017;SDS011;48171;51.550;5.434;2022-12-07T04:10:59;17.50;;;8.10;;
61017;SDS011;48171;51.550;5.434;2022-12-07T04:13:25;16.63;;;8.10;;
61017;SDS011;48171;51.550;5.434;2022-12-07T04:15:50;13.07;;;7.40;;
61017;SDS011;48171;51.550;5.434;2022-12-07T04:18:15;13.50;;;7.28;;
61017;SDS011;48171;51.550;5.434;2022-12-07T04:20:41;16.45;;;6.60;;
61017;SDS011;48171;51.550;5.434;2022-12-07T04:23:06;16.83;;;6.65;;
61017;SDS011;48171;51.550;5.434;2022-12-07T04:25:31;15.73;;;6.72;;
61017;SDS011;48171;51.550;5.434;2022-12-07T04:27:57;15.27;;;7.07;;
61017;SDS011;48171;51.550;5.434;2022-12-07T04:30:22;11.15;;;5.85;;
61017;SDS011;48171;51.550;5.434;2022-12-07T04:32:47;20.52;;;6.72;;
61017;SDS011;48171;51.550;5.434;2022-12-07T04:35:12;17.83;;;6.60;;
61017;SDS011;48171;51.550;5.434;2022-12-07T04:37:38;15.50;;;6.63;;
61017;SDS011;48171;51.550;5.434;2022-12-07T04:40:05;13.68;;;6.38;;
61017;SDS011;48171;51.550;5.434;2022-12-07T04:42:32;15.60;;;6.30;;
61017;SDS011;48171;51.550;5.434;2022-12-07T04:44:57;15.05;;;6.57;;
61017;SDS011;48171;51.550;5.434;2022-12-07T04:47:23;14.07;;;7.07;;
61017;SDS011;48171;51.550;5.434;2022-12-07T04:49:48;15.80;;;6.70;;
61017;SDS011;48171;51.550;5.434;2022-12-07T04:52:13;14.98;;;7.22;;
61017;SDS011;48171;51.550;5.434;2022-12-07T04:54:38;16.90;;;6.97;;
61017;SDS011;48171;51.550;5.434;2022-12-07T04:57:04;13.27;;;7.30;;
61017;SDS011;48171;51.550;5.434;2022-12-07T04:59:29;12.63;;;6.20;;
61017;SDS011;48171;51.550;5.434;2022-12-07T05:01:54;16.30;;;7.38;;
61017;SDS011;48171;51.550;5.434;2022-12-07T05:04:19;16.48;;;7.60;;
61017;SDS011;48171;51.550;5.434;2022-12-07T05:06:45;18.20;;;7.95;;
61017;SDS011;48171;51.550;5.434;2022-12-07T05:09:10;15.88;;;7.68;;
61017;SDS011;48171;51.550;5.434;2022-12-07T05:11:35;16.02;;;8.15;;
61017;SDS011;48171;51.550;5.434;2022-12-07T05:14:08;15.40;;;8.38;;
61017;SDS011;48171;51.550;5.434;2022-12-07T05:16:36;14.23;;;7.63;;
61017;SDS011;48171;51.550;5.434;2022-12-07T05:19:03;15.73;;;8.88;;
61017;SDS011;48171;51.550;5.434;2022-12-07T05:21:29;15.70;;;7.93;;
61017;SDS011;48171;51.550;5.434;2022-12-07T05:23:54;16.92;;;8.95;;
61017;SDS011;48171;51.550;5.434;2022-12-07T05:26:19;17.92;;;9.55;;
61017;SDS011;48171;51.550;5.434;2022-12-07T05:28:45;16.85;;;9.00;;
61017;SDS011;48171;51.550;5.434;2022-12-07T05:31:14;19.48;;;9.43;;
61017;SDS011;48171;51.550;5.434;2022-12-07T05:33:39;17.00;;;8.45;;
61017;SDS011;48171;51.550;5.434;2022-12-07T05:36:04;17.92;;;8.57;;
61017;SDS011;48171;51.550;5.434;2022-12-07T05:38:32;16.63;;;8.55;;
61017;SDS011;48171;51.550;5.434;2022-12-07T05:41:02;16.95;;;8.40;;
61017;SDS011;48171;51.550;5.434;2022-12-07T05:43:28;17.80;;;9.13;;
61017;SDS011;48171;51.550;5.434;2022-12-07T05:45:54;19.65;;;9.48;;
61017;SDS011;48171;51.550;5.434;2022-12-07T05:48:19;18.42;;;9.63;;
61017;SDS011;48171;51.550;5.434;2022-12-07T05:50:47;27.45;;;9.30;;
61017;SDS011;48171;51.550;5.434;2022-12-07T05:53:13;16.90;;;8.68;;
61017;SDS011;48171;51.550;5.434;2022-12-07T05:55:38;16.70;;;8.27;;
61017;SDS011;48171;51.550;5.434;2022-12-07T05:58:03;15.93;;;8.30;;
61017;SDS011;48171;51.550;5.434;2022-12-07T06:00:47;17.15;;;8.65;;
61017;SDS011;48171;51.550;5.434;2022-12-07T06:03:13;16.85;;;8.68;;
61017;SDS011;48171;51.550;5.434;2022-12-07T06:05:38;15.68;;;8.48;;
61017;SDS011;48171;51.550;5.434;2022-12-07T06:08:03;19.00;;;8.30;;
61017;SDS011;48171;51.550;5.434;2022-12-07T06:10:28;16.92;;;9.02;;
61017;SDS011;48171;51.550;5.434;2022-12-07T06:12:54;17.48;;;8.55;;
61017;SDS011;48171;51.550;5.434;2022-12-07T06:15:19;14.65;;;8.35;;
61017;SDS011;48171;51.550;5.434;2022-12-07T06:17:44;16.52;;;8.63;;
61017;SDS011;48171;51.550;5.434;2022-12-07T06:20:10;18.15;;;8.57;;
61017;SDS011;48171;51.550;5.434;2022-12-07T06:22:35;18.40;;;8.38;;
61017;SDS011;48171;51.550;5.434;2022-12-07T06:25:00;16.05;;;7.70;;
61017;SDS011;48171;51.550;5.434;2022-12-07T06:27:26;17.75;;;8.18;;
61017;SDS011;48171;51.550;5.434;2022-12-07T06:29:51;14.35;;;8.15;;
61017;SDS011;48171;51.550;5.434;2022-12-07T06:32:16;18.27;;;7.95;;
61017;SDS011;48171;51.550;5.434;2022-12-07T06:34:42;18.42;;;8.63;;
61017;SDS011;48171;51.550;5.434;2022-12-07T06:37:07;15.77;;;8.48;;
61017;SDS011;48171;51.550;5.434;2022-12-07T06:39:32;20.10;;;8.60;;
61017;SDS011;48171;51.550;5.434;2022-12-07T06:41:58;17.20;;;9.00;;
61017;SDS011;48171;51.550;5.434;2022-12-07T06:44:24;14.18;;;8.60;;
61017;SDS011;48171;51.550;5.434;2022-12-07T06:46:50;17.52;;;8.57;;
61017;SDS011;48171;51.550;5.434;2022-12-07T06:49:16;18.65;;;9.40;;
61017;SDS011;48171;51.550;5.434;2022-12-07T06:51:41;13.35;;;7.90;;
61017;SDS011;48171;51.550;5.434;2022-12-07T06:54:08;14.90;;;8.00;;
61017;SDS011;48171;51.550;5.434;2022-12-07T06:56:34;15.48;;;7.38;;
61017;SDS011;48171;51.550;5.434;2022-12-07T06:58:59;15.27;;;7.60;;
61017;SDS011;48171;51.550;5.434;2022-12-07T07:01:25;15.18;;;7.35;;
61017;SDS011;48171;51.550;5.434;2022-12-07T07:03:50;16.63;;;7.78;;
61017;SDS011;48171;51.550;5.434;2022-12-07T07:06:15;15.30;;;7.47;;
61017;SDS011;48171;51.550;5.434;2022-12-07T07:08:41;14.18;;;7.35;;
61017;SDS011;48171;51.550;5.434;2022-12-07T07:11:06;15.70;;;7.20;;
61017;SDS011;48171;51.550;5.434;2022-12-07T07:13:32;14.35;;;7.72;;
61017;SDS011;48171;51.550;5.434;2022-12-07T07:15:58;14.85;;;6.97;;
61017;SDS011;48171;51.550;5.434;2022-12-07T07:18:24;13.70;;;7.78;;
61017;SDS011;48171;51.550;5.434;2022-12-07T07:20:50;13.45;;;7.65;;
61017;SDS011;48171;51.550;5.434;2022-12-07T07:23:16;15.45;;;8.07;;
61017;SDS011;48171;51.550;5.434;2022-12-07T07:25:41;16.27;;;7.72;;
61017;SDS011;48171;51.550;5.434;2022-12-07T07:28:07;17.23;;;8.07;;
61017;SDS011;48171;51.550;5.434;2022-12-07T07:30:32;12.90;;;7.32;;
61017;SDS011;48171;51.550;5.434;2022-12-07T07:32:58;14.40;;;7.50;;
61017;SDS011;48171;51.550;5.434;2022-12-07T07:35:25;16.55;;;8.10;;
61017;SDS011;48171;51.550;5.434;2022-12-07T07:37:51;14.40;;;8.20;;
61017;SDS011;48171;51.550;5.434;2022-12-07T07:40:16;13.43;;;7.78;;
61017;SDS011;48171;51.550;5.434;2022-12-07T07:42:42;14.10;;;8.13;;
61017;SDS011;48171;51.550;5.434;2022-12-07T07:45:07;15.63;;;8.65;;
61017;SDS011;48171;51.550;5.434;2022-12-07T07:47:33;18.10;;;8.57;;
61017;SDS011;48171;51.550;5.434;2022-12-07T07:49:58;14.18;;;8.15;;
61017;SDS011;48171;51.550;5.434;2022-12-07T07:52:24;15.85;;;7.55;;
61017;SDS011;48171;51.550;5.434;2022-12-07T07:54:50;14.45;;;7.72;;
61017;SDS011;48171;51.550;5.434;2022-12-07T07:57:16;17.05;;;8.27;;
61017;SDS011;48171;51.550;5.434;2022-12-07T07:59:41;15.45;;;7.90;;
61017;SDS011;48171;51.550;5.434;2022-12-07T08:02:09;16.95;;;7.25;;
61017;SDS011;48171;51.550;5.434;2022-12-07T08:04:39;12.90;;;7.70;;
61017;SDS011;48171;51.550;5.434;2022-12-07T08:07:04;12.95;;;7.13;;
61017;SDS011;48171;51.550;5.434;2022-12-07T08:09:30;16.40;;;7.65;;
61017;SDS011;48171;51.550;5.434;2022-12-07T08:11:55;13.00;;;7.55;;
61017;SDS011;48171;51.550;5.434;2022-12-07T08:14:20;20.60;;;8.10;;
61017;SDS011;48171;51.550;5.434;2022-12-07T08:16:45;17.83;;;7.35;;
61017;SDS011;48171;51.550;5.434;2022-12-07T08:19:11;17.55;;;7.82;;
61017;SDS011;48171;51.550;5.434;2022-12-07T08:21:37;16.00;;;7.78;;
61017;SDS011;48171;51.550;5.434;2022-12-07T08:24:02;16.35;;;7.95;;
61017;SDS011;48171;51.550;5.434;2022-12-07T08:26:27;12.73;;;8.07;;
61017;SDS011;48171;51.550;5.434;2022-12-07T08:28:53;19.02;;;7.60;;
61017;SDS011;48171;51.550;5.434;2022-12-07T08:31:19;15.43;;;7.72;;
61017;SDS011;48171;51.550;5.434;2022-12-07T08:33:45;14.05;;;7.05;;
61017;SDS011;48171;51.550;5.434;2022-12-07T08:36:11;18.13;;;7.13;;
61017;SDS011;48171;51.550;5.434;2022-12-07T08:38:38;15.27;;;7.75;;
61017;SDS011;48171;51.550;5.434;2022-12-07T08:41:04;15.52;;;7.38;;
61017;SDS011;48171;51.550;5.434;2022-12-07T08:43:30;12.40;;;7.63;;
61017;SDS011;48171;51.550;5.434;2022-12-07T08:48:36;17.60;;;7.80;;
61017;SDS011;48171;51.550;5.434;2022-12-07T08:51:05;15.85;;;7.70;;
61017;SDS011;48171;51.550;5.434;2022-12-07T08:53:31;17.33;;;8.07;;
61017;SDS011;48171;51.550;5.434;2022-12-07T08:55:59;12.25;;;7.63;;
61017;SDS011;48171;51.550;5.434;2022-12-07T08:58:25;14.00;;;7.55;;
61017;SDS011;48171;51.550;5.434;2022-12-07T09:00:50;17.17;;;7.68;;
61017;SDS011;48171;51.550;5.434;2022-12-07T09:03:16;12.82;;;6.78;;
61017;SDS011;48171;51.550;5.434;2022-12-07T09:05:41;13.88;;;7.03;;
61017;SDS011;48171;51.550;5.434;2022-12-07T09:08:07;12.57;;;6.35;;
61017;SDS011;48171;51.550;5.434;2022-12-07T09:10:33;12.15;;;6.85;;
61017;SDS011;48171;51.550;5.434;2022-12-07T09:12:58;11.93;;;6.25;;
61017;SDS011;48171;51.550;5.434;2022-12-07T09:15:27;10.70;;;6.28;;
61017;SDS011;48171;51.550;5.434;2022-12-07T09:17:53;12.90;;;6.03;;
61017;SDS011;48171;51.550;5.434;2022-12-07T09:20:18;13.85;;;6.25;;
61017;SDS011;48171;51.550;5.434;2022-12-07T09:22:44;10.07;;;5.38;;
61017;SDS011;48171;51.550;5.434;2022-12-07T09:25:09;13.18;;;5.85;;
61017;SDS011;48171;51.550;5.434;2022-12-07T09:27:34;12.68;;;5.80;;
61017;SDS011;48171;51.550;5.434;2022-12-07T09:30:00;14.25;;;6.22;;
61017;SDS011;48171;51.550;5.434;2022-12-07T09:32:25;10.57;;;5.85;;
61017;SDS011;48171;51.550;5.434;2022-12-07T09:34:50;14.45;;;5.47;;
61017;SDS011;48171;51.550;5.434;2022-12-07T09:37:16;16.38;;;5.53;;
61017;SDS011;48171;51.550;5.434;2022-12-07T09:39:41;10.50;;;5.18;;
61017;SDS011;48171;51.550;5.434;2022-12-07T09:42:06;13.32;;;4.68;;
61017;SDS011;48171;51.550;5.434;2022-12-07T09:44:33;15.63;;;5.53;;
61017;SDS011;48171;51.550;5.434;2022-12-07T09:47:00;11.25;;;4.88;;
61017;SDS011;48171;51.550;5.434;2022-12-07T09:49:28;15.80;;;5.65;;
61017;SDS011;48171;51.550;5.434;2022-12-07T09:52:02;13.48;;;5.82;;
61017;SDS011;48171;51.550;5.434;2022-12-07T09:54:45;14.13;;;5.75;;
61017;SDS011;48171;51.550;5.434;2022-12-07T09:57:12;19.23;;;5.93;;
61017;SDS011;48171;51.550;5.434;2022-12-07T09:59:38;11.40;;;5.38;;
61017;SDS011;48171;51.550;5.434;2022-12-07T10:05:04;12.43;;;5.22;;
61017;SDS011;48171;51.550;5.434;2022-12-07T10:07:32;15.00;;;5.75;;
61017;SDS011;48171;51.550;5.434;2022-12-07T10:09:57;12.00;;;5.18;;
61017;SDS011;48171;51.550;5.434;2022-12-07T10:12:23;15.10;;;4.95;;
61017;SDS011;48171;51.550;5.434;2022-12-07T10:14:56;12.95;;;5.70;;
61017;SDS011;48171;51.550;5.434;2022-12-07T10:22:53;8.32;;;5.32;;
61017;SDS011;48171;51.550;5.434;2022-12-07T10:25:19;13.10;;;5.95;;
61017;SDS011;48171;51.550;5.434;2022-12-07T10:36:15;16.40;;;6.63;;
61017;SDS011;48171;51.550;5.434;2022-12-07T10:38:46;13.07;;;6.90;;
61017;SDS011;48171;51.550;5.434;2022-12-07T10:41:13;11.55;;;6.00;;
61017;SDS011;48171;51.550;5.434;2022-12-07T10:43:45;21.30;;;7.47;;
61017;SDS011;48171;51.550;5.434;2022-12-07T10:49:29;15.38;;;6.63;;
61017;SDS011;48171;51.550;5.434;2022-12-07T10:52:16;10.00;;;6.28;;
61017;SDS011;48171;51.550;5.434;2022-12-07T10:55:00;14.40;;;6.50;;
61017;SDS011;48171;51.550;5.434;2022-12-07T11:00:04;11.02;;;6.00;;
61017;SDS011;48171;51.550;5.434;2022-12-07T11:05:39;13.35;;;5.78;;
61017;SDS011;48171;51.550;5.434;2022-12-07T11:08:29;14.35;;;5.63;;
61017;SDS011;48171;51.550;5.434;2022-12-07T11:11:17;14.25;;;6.20;;
61017;SDS011;48171;51.550;5.434;2022-12-07T11:13:48;11.43;;;5.30;;
61017;SDS011;48171;51.550;5.434;2022-12-07T11:22:06;13.30;;;5.68;;
61017;SDS011;48171;51.550;5.434;2022-12-07T11:24:41;13.40;;;5.40;;
61017;SDS011;48171;51.550;5.434;2022-12-07T11:30:03;15.32;;;5.38;;
61017;SDS011;48171;51.550;5.434;2022-12-07T11:38:42;11.18;;;4.85;;
61017;SDS011;48171;51.550;5.434;2022-12-07T11:41:15;14.95;;;4.80;;
61017;SDS011;48171;51.550;5.434;2022-12-07T11:43:52;9.63;;;5.13;;
61017;SDS011;48171;51.550;5.434;2022-12-07T11:46:18;10.38;;;5.18;;
61017;SDS011;48171;51.550;5.434;2022-12-07T11:48:50;10.10;;;4.90;;
61017;SDS011;48171;51.550;5.434;2022-12-07T11:51:38;11.85;;;5.60;;
61017;SDS011;48171;51.550;5.434;2022-12-07T11:54:12;14.82;;;5.57;;
61017;SDS011;48171;51.550;5.434;2022-12-07T11:56:43;9.23;;;4.53;;
61017;SDS011;48171;51.550;5.434;2022-12-07T11:59:17;15.57;;;5.63;;
61017;SDS011;48171;51.550;5.434;2022-12-07T12:04:30;10.02;;;5.00;;
61017;SDS011;48171;51.550;5.434;2022-12-07T12:07:06;10.10;;;4.82;;
61017;SDS011;48171;51.550;5.434;2022-12-07T12:09:33;11.40;;;5.13;;
61017;SDS011;48171;51.550;5.434;2022-12-07T12:15:09;14.57;;;4.78;;
61017;SDS011;48171;51.550;5.434;2022-12-07T12:17:54;10.20;;;4.78;;
61017;SDS011;48171;51.550;5.434;2022-12-07T12:25:52;9.05;;;3.53;;
61017;SDS011;48171;51.550;5.434;2022-12-07T12:33:43;8.48;;;2.08;;
61017;SDS011;48171;51.550;5.434;2022-12-07T12:36:18;4.95;;;2.00;;
61017;SDS011;48171;51.550;5.434;2022-12-07T12:51:48;6.18;;;1.95;;
61017;SDS011;48171;51.550;5.434;2022-12-07T12:56:45;10.55;;;2.35;;
61017;SDS011;48171;51.550;5.434;2022-12-07T12:59:38;7.43;;;2.60;;
61017;SDS011;48171;51.550;5.434;2022-12-07T13:04:58;7.93;;;2.88;;
61017;SDS011;48171;51.550;5.434;2022-12-07T13:10:21;8.63;;;3.38;;
61017;SDS011;48171;51.550;5.434;2022-12-07T13:31:36;9.20;;;3.00;;
61017;SDS011;48171;51.550;5.434;2022-12-07T13:34:05;8.43;;;3.00;;
61017;SDS011;48171;51.550;5.434;2022-12-07T13:36:50;10.38;;;3.47;;
61017;SDS011;48171;51.550;5.434;2022-12-07T13:39:20;7.22;;;3.05;;
61017;SDS011;48171;51.550;5.434;2022-12-07T13:41:51;8.80;;;3.05;;
61017;SDS011;48171;51.550;5.434;2022-12-07T13:44:18;4.90;;;2.88;;
61017;SDS011;48171;51.550;5.434;2022-12-07T13:46:52;6.97;;;3.72;;
61017;SDS011;48171;51.550;5.434;2022-12-07T13:51:52;11.13;;;3.15;;
61017;SDS011;48171;51.550;5.434;2022-12-07T13:54:18;9.57;;;3.25;;
61017;SDS011;48171;51.550;5.434;2022-12-07T13:56:47;6.78;;;3.33;;
61017;SDS011;48171;51.550;5.434;2022-12-07T13:59:17;6.25;;;3.45;;
61017;SDS011;48171;51.550;5.434;2022-12-07T14:01:45;7.80;;;3.55;;
61017;SDS011;48171;51.550;5.434;2022-12-07T14:06:59;9.90;;;3.60;;
61017;SDS011;48171;51.550;5.434;2022-12-07T14:09:27;7.32;;;3.00;;
61017;SDS011;48171;51.550;5.434;2022-12-07T14:11:55;6.68;;;3.50;;
61017;SDS011;48171;51.550;5.434;2022-12-07T14:14:29;10.05;;;3.83;;
61017;SDS011;48171;51.550;5.434;2022-12-07T14:16:58;16.58;;;3.70;;
61017;SDS011;48171;51.550;5.434;2022-12-07T14:19:45;9.18;;;3.22;;
61017;SDS011;48171;51.550;5.434;2022-12-07T14:22:25;7.05;;;2.50;;
61017;SDS011;48171;51.550;5.434;2022-12-07T14:27:55;9.43;;;3.17;;
61017;SDS011;48171;51.550;5.434;2022-12-07T14:30:23;10.70;;;3.00;;
61017;SDS011;48171;51.550;5.434;2022-12-07T14:32:58;5.75;;;1.80;;
61017;SDS011;48171;51.550;5.434;2022-12-07T14:35:25;4.25;;;1.38;;
61017;SDS011;48171;51.550;5.434;2022-12-07T14:37:51;2.17;;;1.42;;
61017;SDS011;48171;51.550;5.434;2022-12-07T14:40:21;5.15;;;1.90;;
61017;SDS011;48171;51.550;5.434;2022-12-07T14:43:02;4.63;;;2.50;;
61017;SDS011;48171;51.550;5.434;2022-12-07T14:45:30;8.77;;;2.55;;
61017;SDS011;48171;51.550;5.434;2022-12-07T14:47:55;5.65;;;2.50;;
61017;SDS011;48171;51.550;5.434;2022-12-07T14:50:21;7.30;;;3.03;;
61017;SDS011;48171;51.550;5.434;2022-12-07T14:52:48;7.05;;;3.28;;
61017;SDS011;48171;51.550;5.434;2022-12-07T14:55:24;9.07;;;3.55;;
61017;SDS011;48171;51.550;5.434;2022-12-07T14:57:51;10.73;;;3.95;;
61017;SDS011;48171;51.550;5.434;2022-12-07T15:00:17;6.72;;;3.63;;
61017;SDS011;48171;51.550;5.434;2022-12-07T15:02:44;10.82;;;4.15;;
61017;SDS011;48171;51.550;5.434;2022-12-07T15:05:11;9.02;;;4.05;;
61017;SDS011;48171;51.550;5.434;2022-12-07T15:07:36;10.60;;;4.07;;
61017;SDS011;48171;51.550;5.434;2022-12-07T15:10:02;12.60;;;4.40;;
61017;SDS011;48171;51.550;5.434;2022-12-07T15:12:28;8.93;;;4.60;;
61017;SDS011;48171;51.550;5.434;2022-12-07T15:14:53;8.55;;;3.95;;
61017;SDS011;48171;51.550;5.434;2022-12-07T15:17:18;10.25;;;3.80;;
61017;SDS011;48171;51.550;5.434;2022-12-07T15:19:44;7.55;;;4.15;;
61017;SDS011;48171;51.550;5.434;2022-12-07T15:22:09;10.25;;;4.43;;
61017;SDS011;48171;51.550;5.434;2022-12-07T15:24:35;7.38;;;4.70;;
61017;SDS011;48171;51.550;5.434;2022-12-07T15:27:02;13.75;;;5.38;;
61017;SDS011;48171;51.550;5.434;2022-12-07T15:29:28;10.52;;;5.00;;
61017;SDS011;48171;51.550;5.434;2022-12-07T15:31:53;12.23;;;5.95;;
61017;SDS011;48171;51.550;5.434;2022-12-07T15:34:19;8.63;;;5.85;;
61017;SDS011;48171;51.550;5.434;2022-12-07T15:36:44;9.30;;;5.85;;
61017;SDS011;48171;51.550;5.434;2022-12-07T15:39:10;11.18;;;5.75;;
61017;SDS011;48171;51.550;5.434;2022-12-07T15:41:35;11.98;;;6.22;;
61017;SDS011;48171;51.550;5.434;2022-12-07T15:44:00;10.82;;;5.90;;
61017;SDS011;48171;51.550;5.434;2022-12-07T15:46:44;10.95;;;5.57;;
61017;SDS011;48171;51.550;5.434;2022-12-07T15:49:14;11.25;;;5.03;;
61017;SDS011;48171;51.550;5.434;2022-12-07T15:51:41;10.00;;;4.20;;
61017;SDS011;48171;51.550;5.434;2022-12-07T15:54:11;7.70;;;4.07;;
61017;SDS011;48171;51.550;5.434;2022-12-07T15:56:38;11.43;;;3.90;;
61017;SDS011;48171;51.550;5.434;2022-12-07T15:59:03;6.97;;;3.35;;
61017;SDS011;48171;51.550;5.434;2022-12-07T16:01:29;6.70;;;4.00;;
61017;SDS011;48171;51.550;5.434;2022-12-07T16:03:54;7.75;;;3.70;;
61017;SDS011;48171;51.550;5.434;2022-12-07T16:06:22;7.18;;;3.80;;
61017;SDS011;48171;51.550;5.434;2022-12-07T16:08:47;8.15;;;4.07;;
61017;SDS011;48171;51.550;5.434;2022-12-07T16:11:13;8.90;;;3.83;;
61017;SDS011;48171;51.550;5.434;2022-12-07T16:13:38;12.05;;;3.85;;
61017;SDS011;48171;51.550;5.434;2022-12-07T16:16:09;6.22;;;3.58;;
61017;SDS011;48171;51.550;5.434;2022-12-07T16:18:37;10.00;;;3.65;;
61017;SDS011;48171;51.550;5.434;2022-12-07T16:21:02;7.03;;;3.70;;
61017;SDS011;48171;51.550;5.434;2022-12-07T16:23:28;9.40;;;3.95;;
61017;SDS011;48171;51.550;5.434;2022-12-07T16:25:53;9.35;;;4.25;;
61017;SDS011;48171;51.550;5.434;2022-12-07T16:28:21;6.82;;;3.88;;
61017;SDS011;48171;51.550;5.434;2022-12-07T16:30:46;9.15;;;4.63;;
61017;SDS011;48171;51.550;5.434;2022-12-07T16:33:11;8.60;;;4.53;;
61017;SDS011;48171;51.550;5.434;2022-12-07T16:35:40;8.45;;;4.88;;
61017;SDS011;48171;51.550;5.434;2022-12-07T16:38:06;11.65;;;4.40;;
61017;SDS011;48171;51.550;5.434;2022-12-07T16:40:32;7.85;;;4.72;;
61017;SDS011;48171;51.550;5.434;2022-12-07T16:42:57;10.10;;;4.78;;
61017;SDS011;48171;51.550;5.434;2022-12-07T16:45:22;8.70;;;4.78;;
61017;SDS011;48171;51.550;5.434;2022-12-07T16:47:48;10.93;;;5.40;;
61017;SDS011;48171;51.550;5.434;2022-12-07T16:50:13;8.18;;;5.38;;
61017;SDS011;48171;51.550;5.434;2022-12-07T16:52:38;9.73;;;5.30;;